createdAt,value
2017-07-18T00:00:27.608Z,6.47
2017-07-18T00:02:54.267Z,5.50
2017-07-18T00:05:20.920Z,6.47
2017-07-18T00:07:47.579Z,5.78
2017-07-18T00:10:14.241Z,5.93
2017-07-18T00:12:40.900Z,5.82
2017-07-18T00:15:07.562Z,5.62
2017-07-18T00:17:34.211Z,5.93
2017-07-18T00:20:00.864Z,5.55
2017-07-18T00:22:27.530Z,6.10
2017-07-18T00:24:54.223Z,5.80
2017-07-18T00:27:20.879Z,5.30
2017-07-18T00:29:47.559Z,5.85
2017-07-18T00:32:14.214Z,5.47
2017-07-18T00:34:40.896Z,6.05
2017-07-18T00:37:07.556Z,5.87
2017-07-18T00:39:34.243Z,5.80
2017-07-18T00:42:00.904Z,5.87
2017-07-18T00:44:27.596Z,6.35
2017-07-18T00:46:54.248Z,6.00
2017-07-18T00:49:20.927Z,5.35
2017-07-18T00:51:47.579Z,5.90
2017-07-18T00:54:14.260Z,6.40
2017-07-18T00:56:40.928Z,5.90
2017-07-18T00:59:07.615Z,6.80
2017-07-18T01:01:34.277Z,6.10
2017-07-18T01:04:00.936Z,7.05
2017-07-18T01:06:27.589Z,5.43
2017-07-18T01:08:54.250Z,6.70
2017-07-18T01:11:20.903Z,6.12
2017-07-18T01:13:47.560Z,5.68
2017-07-18T01:16:14.214Z,6.82
2017-07-18T01:18:40.876Z,5.80
2017-07-18T01:21:07.530Z,5.82
2017-07-18T01:23:34.192Z,6.12
2017-07-18T01:26:00.852Z,6.20
2017-07-18T01:28:27.516Z,6.05
2017-07-18T01:30:54.180Z,6.20
2017-07-18T01:33:20.832Z,6.35
2017-07-18T01:35:47.488Z,6.07
2017-07-18T01:38:14.140Z,6.07
2017-07-18T01:40:40.796Z,6.20
2017-07-18T01:43:07.457Z,6.20
2017-07-18T01:45:34.112Z,6.43
2017-07-18T01:48:00.772Z,6.25
2017-07-18T01:50:27.423Z,6.30
2017-07-18T01:52:54.084Z,5.80
2017-07-18T01:55:20.746Z,6.30
2017-07-18T01:57:47.399Z,6.40
2017-07-18T02:00:14.089Z,6.07
2017-07-18T02:02:40.777Z,5.95
2017-07-18T02:05:07.480Z,6.10
2017-07-18T02:07:34.136Z,6.65
2017-07-18T02:10:00.820Z,6.32
2017-07-18T02:12:27.480Z,6.78
2017-07-18T02:14:54.181Z,6.95
2017-07-18T02:17:20.849Z,6.40
2017-07-18T02:19:47.511Z,6.10
2017-07-18T02:22:14.172Z,6.68
2017-07-18T02:24:40.826Z,5.97
2017-07-18T02:27:07.483Z,5.90
2017-07-18T02:29:34.140Z,6.10
2017-07-18T02:32:00.797Z,6.68
2017-07-18T02:34:27.460Z,6.60
2017-07-18T02:36:54.125Z,6.32
2017-07-18T02:39:20.779Z,6.90
2017-07-18T02:41:47.435Z,6.32
2017-07-18T02:44:14.099Z,7.20
2017-07-18T02:46:40.761Z,6.10
2017-07-18T02:49:07.421Z,6.80
2017-07-18T02:51:34.078Z,7.20
2017-07-18T02:54:00.736Z,7.25
2017-07-18T02:56:27.391Z,7.65
2017-07-18T02:58:54.040Z,6.87
2017-07-18T03:01:20.703Z,6.70
2017-07-18T03:03:47.356Z,6.35
2017-07-18T03:06:14.020Z,7.20
2017-07-18T03:08:40.680Z,6.25
2017-07-18T03:11:07.337Z,6.87
2017-07-18T03:13:33.995Z,7.03
2017-07-18T03:16:00.654Z,6.80
2017-07-18T03:18:27.308Z,7.30
2017-07-18T03:20:53.987Z,7.47
2017-07-18T03:23:20.643Z,7.22
2017-07-18T03:25:47.330Z,7.95
2017-07-18T03:28:13.985Z,6.70
2017-07-18T03:30:40.643Z,6.65
2017-07-18T03:33:07.299Z,7.53
2017-07-18T03:35:33.959Z,7.65
2017-07-18T03:38:00.639Z,7.00
2017-07-18T03:40:27.301Z,7.50
2017-07-18T03:42:53.960Z,7.07
2017-07-18T03:45:20.672Z,7.53
2017-07-18T03:47:47.324Z,7.55
2017-07-18T03:50:13.981Z,7.25
2017-07-18T03:52:40.665Z,7.65
2017-07-18T03:55:07.323Z,7.62
2017-07-18T03:57:34.020Z,8.02
2017-07-18T04:00:00.679Z,7.62
2017-07-18T04:02:27.361Z,7.47
2017-07-18T04:04:54.020Z,7.30
2017-07-18T04:07:20.716Z,7.60
2017-07-18T04:09:47.371Z,6.82
2017-07-18T04:12:14.049Z,7.45
2017-07-18T04:14:40.712Z,6.75
2017-07-18T04:17:07.397Z,7.50
2017-07-18T04:19:34.058Z,8.27
2017-07-18T04:22:00.744Z,8.30
2017-07-18T04:24:27.405Z,7.60
2017-07-18T04:26:54.088Z,7.00
2017-07-18T04:29:20.745Z,6.37
2017-07-18T04:31:47.426Z,7.30
2017-07-18T04:34:14.092Z,6.80
2017-07-18T04:36:40.775Z,7.07
2017-07-18T04:39:07.438Z,8.80
2017-07-18T04:41:34.091Z,7.25
2017-07-18T04:44:00.751Z,7.35
2017-07-18T04:46:27.408Z,7.60
2017-07-18T04:48:54.070Z,8.25
2017-07-18T04:51:20.728Z,8.40
2017-07-18T04:53:47.386Z,8.32
2017-07-18T04:56:14.049Z,9.05
2017-07-18T04:58:40.714Z,8.43
2017-07-18T05:01:07.379Z,8.68
2017-07-18T05:03:34.048Z,8.10
2017-07-18T05:06:00.717Z,8.30
2017-07-18T05:08:27.382Z,8.07
2017-07-18T05:10:54.087Z,8.25
2017-07-18T05:13:20.747Z,8.75
2017-07-18T05:15:47.409Z,8.32
2017-07-18T05:18:14.099Z,7.30
2017-07-18T05:20:40.765Z,7.85
2017-07-18T05:23:07.448Z,7.60
2017-07-18T05:25:34.112Z,7.90
2017-07-18T05:28:00.797Z,6.62
2017-07-18T05:30:27.468Z,5.95
2017-07-18T05:32:54.156Z,5.55
2017-07-18T05:35:20.813Z,5.72
2017-07-18T05:37:47.499Z,5.10
2017-07-18T05:40:14.155Z,4.97
2017-07-18T05:42:40.838Z,4.60
2017-07-18T05:45:07.498Z,4.60
2017-07-18T05:47:34.187Z,4.87
2017-07-18T05:50:00.849Z,4.07
2017-07-18T05:52:27.537Z,4.60
2017-07-18T05:54:54.200Z,4.30
2017-07-18T05:57:20.998Z,3.87
2017-07-18T05:59:47.672Z,4.80
2017-07-18T06:02:14.335Z,4.10
2017-07-18T06:04:41.004Z,4.70
2017-07-18T06:07:07.665Z,4.33
2017-07-18T06:09:34.341Z,4.40
2017-07-18T06:12:01.004Z,4.83
2017-07-18T06:14:27.672Z,4.33
2017-07-18T06:16:54.332Z,4.50
2017-07-18T06:19:20.992Z,4.97
2017-07-18T06:21:47.651Z,4.27
2017-07-18T06:24:14.323Z,4.20
2017-07-18T06:26:40.993Z,4.50
2017-07-18T06:29:07.654Z,4.40
2017-07-18T06:31:34.310Z,4.10
2017-07-18T06:34:00.969Z,4.00
2017-07-18T06:36:27.627Z,4.43
2017-07-18T06:38:54.283Z,4.07
2017-07-18T06:41:20.942Z,3.83
2017-07-18T06:43:47.599Z,4.07
2017-07-18T06:46:14.260Z,3.60
2017-07-18T06:48:40.944Z,4.40
2017-07-18T06:51:07.600Z,4.63
2017-07-18T06:53:34.280Z,5.00
2017-07-18T06:56:00.948Z,4.00
2017-07-18T06:58:27.631Z,3.77
2017-07-18T07:00:54.296Z,4.27
2017-07-18T07:03:20.988Z,4.70
2017-07-18T07:05:47.652Z,4.23
2017-07-18T07:08:14.325Z,4.03
2017-07-18T07:10:40.985Z,3.93
2017-07-18T07:13:07.640Z,3.80
2017-07-18T07:15:34.296Z,4.93
2017-07-18T07:18:00.970Z,3.80
2017-07-18T07:20:27.637Z,4.30
2017-07-18T07:22:54.302Z,4.63
2017-07-18T07:25:20.971Z,4.13
2017-07-18T07:27:47.635Z,4.00
2017-07-18T07:30:14.299Z,3.30
2017-07-18T07:32:40.990Z,4.00
2017-07-18T07:35:07.656Z,4.57
2017-07-18T07:37:34.319Z,3.97
2017-07-18T07:40:01.156Z,4.20
2017-07-18T07:42:27.853Z,4.00
2017-07-18T07:44:54.512Z,4.57
2017-07-18T07:47:21.175Z,4.30
2017-07-18T07:49:47.827Z,3.87
2017-07-18T07:52:14.484Z,4.67
2017-07-18T07:54:41.143Z,4.00
2017-07-18T07:57:07.809Z,4.57
2017-07-18T07:59:34.468Z,4.57
2017-07-18T08:02:01.119Z,4.47
2017-07-18T08:04:27.812Z,4.60
2017-07-18T08:06:54.481Z,3.80
2017-07-18T08:09:21.156Z,4.20
2017-07-18T08:11:47.825Z,4.90
2017-07-18T08:14:14.496Z,4.00
2017-07-18T08:16:41.156Z,3.63
2017-07-18T08:19:07.816Z,4.10
2017-07-18T08:21:34.484Z,4.00
2017-07-18T08:24:01.148Z,3.83
2017-07-18T08:26:27.824Z,3.73
2017-07-18T08:28:54.496Z,4.40
2017-07-18T08:31:21.175Z,4.47
2017-07-18T08:33:47.828Z,4.20
2017-07-18T08:36:14.509Z,4.23
2017-07-18T08:38:41.167Z,4.40
2017-07-18T08:41:07.851Z,4.13
2017-07-18T08:43:34.518Z,4.40
2017-07-18T08:46:01.215Z,3.80
2017-07-18T08:48:27.876Z,4.30
2017-07-18T08:50:54.563Z,4.40
2017-07-18T08:53:21.218Z,4.50
2017-07-18T08:55:47.900Z,3.50
2017-07-18T08:58:14.564Z,4.00
2017-07-18T09:00:41.267Z,3.80
2017-07-18T09:03:07.932Z,4.13
2017-07-18T09:05:34.628Z,4.23
2017-07-18T09:08:01.284Z,4.20
2017-07-18T09:10:27.982Z,4.40
2017-07-18T09:12:54.639Z,4.23
2017-07-18T09:15:21.324Z,4.07
2017-07-18T09:17:48.077Z,4.17
2017-07-18T09:20:14.759Z,4.60
2017-07-18T09:22:41.416Z,4.40
2017-07-18T09:25:08.108Z,3.70
2017-07-18T09:27:34.768Z,3.80
2017-07-18T09:30:01.438Z,3.93
2017-07-18T09:32:28.098Z,4.00
2017-07-18T09:34:54.755Z,3.70
2017-07-18T09:37:21.423Z,4.30
2017-07-18T09:39:48.089Z,3.73
2017-07-18T09:42:14.759Z,4.30
2017-07-18T09:44:41.434Z,4.27
2017-07-18T09:47:08.117Z,4.90
2017-07-18T09:49:34.768Z,5.37
2017-07-18T09:52:01.447Z,4.40
2017-07-18T09:54:28.103Z,4.30
2017-07-18T09:56:54.785Z,4.20
2017-07-18T09:59:21.444Z,4.10
2017-07-18T10:01:48.124Z,4.27
2017-07-18T10:04:14.792Z,3.90
2017-07-18T10:06:41.491Z,4.27
2017-07-18T10:09:08.165Z,5.00
2017-07-18T10:11:34.831Z,4.67
2017-07-18T10:14:01.488Z,4.33
2017-07-18T10:16:28.152Z,4.20
2017-07-18T10:18:54.815Z,4.00
2017-07-18T10:21:21.500Z,5.10
2017-07-18T10:23:48.163Z,5.03
2017-07-18T10:26:14.826Z,5.60
2017-07-18T10:28:41.487Z,4.10
2017-07-18T10:31:08.142Z,4.40
2017-07-18T10:33:34.830Z,4.17
2017-07-18T10:36:01.483Z,4.07
2017-07-18T10:38:28.159Z,4.33
2017-07-18T10:40:54.825Z,5.83
2017-07-18T10:43:21.499Z,5.00
2017-07-18T10:45:48.181Z,4.30
2017-07-18T10:48:14.859Z,4.43
2017-07-18T10:50:42.381Z,4.43
2017-07-18T10:53:09.065Z,4.73
2017-07-18T10:55:35.723Z,4.10
2017-07-18T10:58:02.415Z,4.47
2017-07-18T11:00:29.072Z,4.33
2017-07-18T11:02:55.765Z,4.60
2017-07-18T11:05:22.428Z,4.13
2017-07-18T11:07:49.116Z,4.53
2017-07-18T11:10:15.771Z,4.83
2017-07-18T11:12:42.455Z,4.87
2017-07-18T11:15:09.119Z,4.30
2017-07-18T11:17:35.812Z,4.53
2017-07-18T11:20:02.476Z,4.30
2017-07-18T11:22:29.144Z,4.37
2017-07-18T11:24:55.812Z,4.83
2017-07-18T11:27:22.476Z,4.77
2017-07-18T11:29:49.143Z,4.53
2017-07-18T11:32:15.808Z,4.53
2017-07-18T11:34:42.480Z,4.83
2017-07-18T11:37:09.134Z,5.07
2017-07-18T11:39:35.792Z,4.83
2017-07-18T11:42:02.448Z,5.00
2017-07-18T11:44:29.114Z,4.50
2017-07-18T11:46:55.780Z,4.90
2017-07-18T11:49:22.452Z,5.30
2017-07-18T11:51:49.107Z,5.47
2017-07-18T11:54:15.764Z,5.00
2017-07-18T11:56:42.415Z,5.00
2017-07-18T11:59:09.075Z,5.57
2017-07-18T12:01:35.728Z,5.73
2017-07-18T12:04:02.388Z,5.70
2017-07-18T12:06:29.048Z,4.97
2017-07-18T12:08:55.711Z,6.50
2017-07-18T12:11:22.371Z,5.40
2017-07-18T12:13:49.030Z,4.70
2017-07-18T12:16:15.682Z,5.60
2017-07-18T12:18:48.269Z,5.37
2017-07-18T12:21:14.939Z,5.00
2017-07-18T12:23:41.620Z,5.57
2017-07-18T12:26:08.272Z,5.10
2017-07-18T12:28:34.961Z,5.57
2017-07-18T12:31:01.618Z,5.47
2017-07-18T12:33:28.302Z,5.20
2017-07-18T12:35:54.963Z,5.20
2017-07-18T12:38:21.624Z,6.00
2017-07-18T12:40:48.352Z,5.40
2017-07-18T12:43:15.016Z,5.33
2017-07-18T12:45:41.672Z,5.50
2017-07-18T12:48:08.344Z,5.63
2017-07-18T12:50:35.035Z,4.90
2017-07-18T12:53:01.692Z,5.40
2017-07-18T12:55:28.372Z,5.70
2017-07-18T12:57:55.035Z,5.60
2017-07-18T13:00:21.727Z,6.00
2017-07-18T13:02:48.384Z,6.00
2017-07-18T13:05:15.060Z,5.80
2017-07-18T13:07:41.727Z,5.73
2017-07-18T13:10:08.485Z,5.30
2017-07-18T13:12:35.145Z,5.37
2017-07-18T13:15:01.824Z,5.10
2017-07-18T13:17:28.484Z,4.90
2017-07-18T13:19:55.167Z,5.70
2017-07-18T13:22:21.828Z,4.87
2017-07-18T13:24:48.507Z,5.30
2017-07-18T13:27:15.183Z,5.57
2017-07-18T13:29:41.868Z,5.27
2017-07-18T13:32:08.524Z,5.30
2017-07-18T13:34:35.216Z,4.97
2017-07-18T13:37:01.885Z,4.90
2017-07-18T13:39:28.578Z,5.33
2017-07-18T13:41:55.239Z,5.00
2017-07-18T13:44:22.000Z,5.37
2017-07-18T13:46:48.710Z,5.13
2017-07-18T13:49:15.401Z,5.67
2017-07-18T13:51:42.065Z,4.80
2017-07-18T13:54:08.727Z,5.00
2017-07-18T13:56:35.399Z,5.10
2017-07-18T13:59:02.064Z,5.50
2017-07-18T14:01:28.728Z,5.27
2017-07-18T14:03:55.388Z,5.27
2017-07-18T14:06:22.041Z,5.10
2017-07-18T14:08:48.704Z,5.00
2017-07-18T14:11:15.372Z,4.83
2017-07-18T14:13:42.027Z,4.87
2017-07-18T14:16:08.683Z,5.50
2017-07-18T14:18:35.349Z,5.30
2017-07-18T14:21:02.011Z,5.10
2017-07-18T14:23:28.669Z,5.30
2017-07-18T14:25:55.327Z,5.00
2017-07-18T14:28:21.984Z,5.73
2017-07-18T14:30:48.640Z,5.40
2017-07-18T14:33:15.299Z,5.10
2017-07-18T14:35:41.958Z,5.47
2017-07-18T14:38:08.618Z,5.27
2017-07-18T14:40:35.284Z,4.90
2017-07-18T14:43:02.000Z,5.10
2017-07-18T14:45:28.793Z,5.30
2017-07-18T14:47:55.473Z,4.93
2017-07-18T14:50:22.169Z,5.87
2017-07-18T14:52:48.823Z,5.97
2017-07-18T14:55:15.506Z,5.60
2017-07-18T14:57:42.163Z,5.67
2017-07-18T15:00:08.853Z,5.73
2017-07-18T15:02:35.561Z,5.13
2017-07-18T15:05:02.224Z,5.33
2017-07-18T15:07:28.888Z,5.33
2017-07-18T15:09:55.568Z,5.40
2017-07-18T15:12:22.243Z,6.30
2017-07-18T15:14:48.907Z,5.70
2017-07-18T15:17:15.560Z,5.10
2017-07-18T15:19:42.220Z,5.90
2017-07-18T15:22:08.882Z,5.30
2017-07-18T15:24:35.537Z,5.57
2017-07-18T15:27:02.203Z,5.10
2017-07-18T15:29:28.867Z,5.67
2017-07-18T15:31:55.530Z,6.00
2017-07-18T15:34:22.188Z,6.10
2017-07-18T15:36:48.851Z,6.67
2017-07-18T15:39:15.509Z,6.20
2017-07-18T15:41:42.195Z,5.43
2017-07-18T15:44:08.880Z,5.43
2017-07-18T15:46:35.558Z,5.70
2017-07-18T15:49:02.256Z,5.50
2017-07-18T15:51:28.930Z,5.87
2017-07-18T15:53:55.592Z,6.00
2017-07-18T15:56:22.257Z,6.40
2017-07-18T15:58:48.913Z,5.73
2017-07-18T16:01:15.908Z,5.77
2017-07-18T16:03:42.580Z,4.93
2017-07-18T16:06:09.248Z,5.53
2017-07-18T16:08:35.911Z,5.73
2017-07-18T16:11:02.569Z,5.77
2017-07-18T16:13:29.231Z,5.87
2017-07-18T16:15:55.931Z,5.83
2017-07-18T16:18:22.587Z,5.10
2017-07-18T16:20:49.247Z,5.90
2017-07-18T16:23:15.907Z,5.20
2017-07-18T16:25:42.577Z,6.27
2017-07-18T16:28:09.263Z,5.23
2017-07-18T16:30:35.919Z,6.10
2017-07-18T16:33:02.607Z,5.43
2017-07-18T16:35:29.265Z,5.40
2017-07-18T16:37:55.949Z,5.90
2017-07-18T16:40:22.603Z,5.83
2017-07-18T16:42:49.288Z,6.17
2017-07-18T16:45:15.957Z,5.60
2017-07-18T16:47:42.645Z,6.50
2017-07-18T16:50:09.308Z,6.47
2017-07-18T16:52:36.002Z,7.40
2017-07-18T16:55:02.668Z,6.17
2017-07-18T16:57:29.333Z,6.37
2017-07-18T16:59:55.996Z,5.40
2017-07-18T17:02:22.655Z,6.10
2017-07-18T17:04:49.572Z,5.33
2017-07-18T17:07:16.231Z,5.63
2017-07-18T17:09:42.910Z,6.07
2017-07-18T17:12:09.572Z,6.47
2017-07-18T17:14:36.264Z,6.40
2017-07-18T17:17:02.919Z,5.33
2017-07-18T17:19:29.607Z,5.60
2017-07-18T17:21:56.276Z,5.83
2017-07-18T17:24:22.956Z,5.30
2017-07-18T17:26:49.627Z,6.10
2017-07-18T17:29:16.283Z,6.60
2017-07-18T17:31:42.944Z,6.13
2017-07-18T17:34:09.605Z,5.67
2017-07-18T17:36:36.264Z,5.83
2017-07-18T17:39:02.936Z,5.83
2017-07-18T17:41:29.614Z,5.07
2017-07-18T17:43:56.287Z,5.30
2017-07-18T17:46:22.972Z,5.73
2017-07-18T17:48:49.636Z,6.20
2017-07-18T17:51:16.323Z,5.47
2017-07-18T17:53:42.984Z,5.20
2017-07-18T17:56:09.663Z,5.80
2017-07-18T17:58:36.326Z,5.40
2017-07-18T18:01:03.013Z,5.63
2017-07-18T18:03:29.734Z,5.53
2017-07-18T18:05:56.417Z,5.33
2017-07-18T18:08:23.073Z,5.37
2017-07-18T18:10:49.769Z,5.07
2017-07-18T18:13:16.433Z,5.20
2017-07-18T18:15:43.120Z,6.00
2017-07-18T18:18:09.776Z,5.47
2017-07-18T18:20:36.459Z,5.80
2017-07-18T18:23:03.119Z,5.70
2017-07-18T18:25:29.821Z,4.80
2017-07-18T18:27:56.480Z,5.53
2017-07-18T18:30:23.163Z,5.80
2017-07-18T18:32:49.832Z,5.50
2017-07-18T18:35:16.516Z,5.03
2017-07-18T18:37:43.179Z,5.03
2017-07-18T18:40:09.831Z,5.70
2017-07-18T18:42:36.488Z,5.50
2017-07-18T18:45:03.154Z,5.20
2017-07-18T18:47:29.816Z,5.50
2017-07-18T18:49:56.496Z,6.30
2017-07-18T18:52:23.164Z,5.97
2017-07-18T18:54:49.822Z,6.00
2017-07-18T18:57:16.479Z,5.73
2017-07-18T18:59:43.145Z,6.03
2017-07-18T19:02:09.818Z,5.90
2017-07-18T19:04:36.478Z,5.50
2017-07-18T19:07:03.143Z,5.90
2017-07-18T19:09:29.804Z,5.80
2017-07-18T19:11:56.499Z,5.47
2017-07-18T19:14:23.155Z,5.27
2017-07-18T19:16:49.833Z,6.30
2017-07-18T19:19:16.490Z,4.77
2017-07-18T19:21:43.176Z,5.90
2017-07-18T19:24:09.843Z,5.50
2017-07-18T19:26:36.535Z,4.78
2017-07-18T19:29:03.200Z,5.40
2017-07-18T19:31:29.884Z,5.53
2017-07-18T19:33:56.546Z,6.20
2017-07-18T19:36:23.223Z,6.00
2017-07-18T19:38:49.880Z,6.77
2017-07-18T19:41:16.575Z,6.00
2017-07-18T19:43:43.254Z,6.50
2017-07-18T19:46:09.955Z,5.30
2017-07-18T19:48:36.626Z,5.80
2017-07-18T19:51:03.292Z,5.82
2017-07-18T19:53:29.964Z,6.43
2017-07-18T19:55:56.630Z,5.72
2017-07-18T19:58:23.298Z,5.82
2017-07-18T20:00:49.964Z,5.87
2017-07-18T20:03:16.631Z,5.82
2017-07-18T20:05:43.295Z,7.05
2017-07-18T20:08:09.964Z,6.43
2017-07-18T20:10:36.628Z,6.00
2017-07-18T20:13:03.303Z,5.70
2017-07-18T20:15:29.968Z,5.12
2017-07-18T20:17:56.628Z,5.62
2017-07-18T20:20:23.291Z,5.30
2017-07-18T20:22:49.964Z,5.87
2017-07-18T20:25:16.627Z,5.93
2017-07-18T20:27:43.289Z,5.50
2017-07-18T20:30:09.947Z,6.03
2017-07-18T20:32:36.613Z,5.60
2017-07-18T20:35:03.276Z,5.55
2017-07-18T20:37:29.939Z,6.10
2017-07-18T20:39:56.599Z,5.90
2017-07-18T20:42:23.283Z,5.50
2017-07-18T20:44:49.943Z,5.90
2017-07-18T20:47:16.630Z,5.90
2017-07-18T20:49:43.291Z,5.70
2017-07-18T20:52:09.979Z,6.12
2017-07-18T20:54:36.647Z,6.18
2017-07-18T20:57:03.335Z,6.62
2017-07-18T20:59:29.995Z,6.55
2017-07-18T21:01:56.667Z,6.60
2017-07-18T21:04:23.329Z,6.65
2017-07-18T21:06:49.997Z,6.72
2017-07-18T21:09:16.667Z,6.90
2017-07-18T21:11:43.326Z,7.25
2017-07-18T21:14:09.984Z,8.57
2017-07-18T21:16:36.644Z,7.15
2017-07-18T21:19:03.311Z,6.80
2017-07-18T21:21:29.970Z,6.80
2017-07-18T21:23:56.634Z,6.60
2017-07-18T21:26:23.291Z,7.93
2017-07-18T21:28:49.958Z,6.30
2017-07-18T21:31:16.615Z,7.18
2017-07-18T21:33:43.279Z,7.70
2017-07-18T21:36:09.932Z,8.40
2017-07-18T21:38:36.900Z,7.95
2017-07-18T21:41:03.555Z,7.97
2017-07-18T21:43:30.220Z,7.75
2017-07-18T21:45:56.884Z,7.18
2017-07-18T21:48:23.539Z,7.47
2017-07-18T21:50:50.200Z,7.87
2017-07-18T21:53:16.883Z,7.18
2017-07-18T21:55:43.543Z,7.32
2017-07-18T21:58:10.244Z,7.90
2017-07-18T22:00:36.904Z,7.40
2017-07-18T22:03:03.561Z,7.40
2017-07-18T22:05:30.227Z,7.75
2017-07-18T22:07:56.879Z,7.05
2017-07-18T22:10:23.543Z,7.60
2017-07-18T22:12:50.216Z,7.50
2017-07-18T22:15:16.871Z,7.35
2017-07-18T22:17:43.527Z,7.40
2017-07-18T22:20:11.023Z,7.18
2017-07-18T22:22:37.686Z,7.05
2017-07-18T22:25:04.349Z,7.78
2017-07-18T22:27:31.004Z,7.20
2017-07-18T22:29:57.667Z,7.30
2017-07-18T22:32:24.319Z,7.03
2017-07-18T22:34:50.999Z,7.43
2017-07-18T22:37:17.665Z,7.40
2017-07-18T22:39:44.349Z,7.75
2017-07-18T22:42:11.011Z,7.60
2017-07-18T22:44:37.692Z,6.85
2017-07-18T22:47:04.352Z,7.90
2017-07-18T22:49:31.047Z,8.13
2017-07-18T22:51:57.719Z,7.43
2017-07-18T22:54:24.400Z,7.65
2017-07-18T22:56:51.345Z,7.65
2017-07-18T22:59:18.032Z,7.50
2017-07-18T23:01:44.691Z,7.60
2017-07-18T23:04:11.375Z,6.95
2017-07-18T23:06:38.028Z,8.02
2017-07-18T23:09:04.707Z,7.55
2017-07-18T23:11:38.036Z,6.87
2017-07-18T23:14:04.715Z,7.65
2017-07-18T23:16:31.367Z,7.20
2017-07-18T23:18:58.023Z,7.22
2017-07-18T23:21:24.735Z,8.23
2017-07-18T23:23:51.395Z,8.32
2017-07-18T23:26:18.063Z,7.60
2017-07-18T23:28:44.724Z,7.57
2017-07-18T23:31:11.652Z,7.82
2017-07-18T23:33:38.316Z,8.30
2017-07-18T23:36:04.992Z,9.32
2017-07-18T23:38:31.647Z,8.20
2017-07-18T23:40:58.330Z,8.15
2017-07-18T23:43:24.988Z,7.35
2017-07-18T23:45:51.674Z,8.20
2017-07-18T23:48:18.332Z,7.53
2017-07-18T23:50:45.016Z,7.75
2017-07-18T23:53:11.675Z,8.70
2017-07-18T23:55:38.599Z,7.40
2017-07-18T23:58:05.252Z,7.93
